sensor_id;sensor_type;location;lat;lon;timestamp;P1;durP1;ratioP1;P2;durP2;ratioP2
72404;SDS011;60395;52.020;113.548;2022-07-29T00:00:22;10.52;;;5.68;;
72404;SDS011;60395;52.020;113.548;2022-07-29T00:06:28;13.80;;;8.10;;
72404;SDS011;60395;52.020;113.548;2022-07-29T00:09:31;11.75;;;6.43;;
72404;SDS011;60395;52.020;113.548;2022-07-29T00:12:52;14.73;;;7.30;;
72404;SDS011;60395;52.020;113.548;2022-07-29T00:15:56;11.85;;;5.60;;
72404;SDS011;60395;52.020;113.548;2022-07-29T00:19:05;13.77;;;5.60;;
72404;SDS011;60395;52.020;113.548;2022-07-29T00:22:08;11.85;;;6.53;;
72404;SDS011;60395;52.020;113.548;2022-07-29T00:25:12;14.10;;;9.38;;
72404;SDS011;60395;52.020;113.548;2022-07-29T00:28:15;17.88;;;8.93;;
72404;SDS011;60395;52.020;113.548;2022-07-29T00:31:18;14.32;;;6.72;;
72404;SDS011;60395;52.020;113.548;2022-07-29T00:34:21;18.13;;;9.88;;
72404;SDS011;60395;52.020;113.548;2022-07-29T00:37:43;13.73;;;5.03;;
72404;SDS011;60395;52.020;113.548;2022-07-29T00:40:46;12.52;;;5.20;;
72404;SDS011;60395;52.020;113.548;2022-07-29T00:43:50;15.05;;;5.93;;
72404;SDS011;60395;52.020;113.548;2022-07-29T00:46:53;10.52;;;7.07;;
72404;SDS011;60395;52.020;113.548;2022-07-29T00:49:56;14.43;;;7.63;;
72404;SDS011;60395;52.020;113.548;2022-07-29T00:53:00;12.45;;;7.40;;
72404;SDS011;60395;52.020;113.548;2022-07-29T00:56:03;13.07;;;8.23;;
72404;SDS011;60395;52.020;113.548;2022-07-29T00:59:07;15.40;;;8.40;;
72404;SDS011;60395;52.020;113.548;2022-07-29T01:02:10;16.15;;;7.55;;
72404;SDS011;60395;52.020;113.548;2022-07-29T01:05:14;13.68;;;8.38;;
72404;SDS011;60395;52.020;113.548;2022-07-29T01:08:20;15.82;;;8.73;;
72404;SDS011;60395;52.020;113.548;2022-07-29T01:11:23;19.77;;;7.45;;
72404;SDS011;60395;52.020;113.548;2022-07-29T01:14:27;11.25;;;8.55;;
72404;SDS011;60395;52.020;113.548;2022-07-29T01:20:51;18.00;;;8.68;;
72404;SDS011;60395;52.020;113.548;2022-07-29T01:24:11;14.30;;;9.00;;
72404;SDS011;60395;52.020;113.548;2022-07-29T01:27:37;17.10;;;9.40;;
72404;SDS011;60395;52.020;113.548;2022-07-29T01:30:53;15.73;;;8.57;;
72404;SDS011;60395;52.020;113.548;2022-07-29T01:34:00;17.10;;;9.80;;
72404;SDS011;60395;52.020;113.548;2022-07-29T01:43:51;26.77;;;11.35;;
72404;SDS011;60395;52.020;113.548;2022-07-29T01:46:58;22.13;;;9.75;;
72404;SDS011;60395;52.020;113.548;2022-07-29T01:50:10;25.85;;;10.60;;
72404;SDS011;60395;52.020;113.548;2022-07-29T01:53:24;18.67;;;9.40;;
72404;SDS011;60395;52.020;113.548;2022-07-29T01:56:39;19.23;;;8.35;;
72404;SDS011;60395;52.020;113.548;2022-07-29T01:59:46;17.08;;;7.38;;
72404;SDS011;60395;52.020;113.548;2022-07-29T02:02:51;12.90;;;5.57;;
72404;SDS011;60395;52.020;113.548;2022-07-29T02:05:56;20.42;;;7.40;;
72404;SDS011;60395;52.020;113.548;2022-07-29T02:09:01;12.88;;;6.68;;
72404;SDS011;60395;52.020;113.548;2022-07-29T02:12:09;19.98;;;5.72;;
72404;SDS011;60395;52.020;113.548;2022-07-29T02:15:14;22.05;;;7.45;;
72404;SDS011;60395;52.020;113.548;2022-07-29T02:18:19;14.52;;;6.32;;
72404;SDS011;60395;52.020;113.548;2022-07-29T02:21:25;18.25;;;6.50;;
72404;SDS011;60395;52.020;113.548;2022-07-29T02:24:29;20.05;;;7.88;;
72404;SDS011;60395;52.020;113.548;2022-07-29T02:27:33;18.88;;;7.38;;
72404;SDS011;60395;52.020;113.548;2022-07-29T02:30:39;22.88;;;8.45;;
72404;SDS011;60395;52.020;113.548;2022-07-29T02:33:44;14.07;;;7.10;;
72404;SDS011;60395;52.020;113.548;2022-07-29T02:36:48;20.40;;;11.82;;
72404;SDS011;60395;52.020;113.548;2022-07-29T02:39:53;15.73;;;7.57;;
72404;SDS011;60395;52.020;113.548;2022-07-29T02:42:58;15.65;;;7.57;;
72404;SDS011;60395;52.020;113.548;2022-07-29T02:46:02;19.50;;;8.03;;
72404;SDS011;60395;52.020;113.548;2022-07-29T02:49:34;13.30;;;6.97;;
72404;SDS011;60395;52.020;113.548;2022-07-29T02:52:44;12.93;;;6.93;;
72404;SDS011;60395;52.020;113.548;2022-07-29T02:55:56;13.48;;;6.78;;
72404;SDS011;60395;52.020;113.548;2022-07-29T02:59:13;12.45;;;7.25;;
72404;SDS011;60395;52.020;113.548;2022-07-29T03:02:20;8.70;;;6.07;;
72404;SDS011;60395;52.020;113.548;2022-07-29T03:05:23;10.57;;;6.18;;
72404;SDS011;60395;52.020;113.548;2022-07-29T03:08:28;10.30;;;5.43;;
72404;SDS011;60395;52.020;113.548;2022-07-29T03:11:32;14.30;;;5.45;;
72404;SDS011;60395;52.020;113.548;2022-07-29T03:14:50;8.82;;;4.93;;
72404;SDS011;60395;52.020;113.548;2022-07-29T03:17:54;11.07;;;6.10;;
72404;SDS011;60395;52.020;113.548;2022-07-29T03:20:58;4.93;;;3.95;;
72404;SDS011;60395;52.020;113.548;2022-07-29T03:24:01;9.30;;;4.90;;
72404;SDS011;60395;52.020;113.548;2022-07-29T03:27:12;7.72;;;4.57;;
72404;SDS011;60395;52.020;113.548;2022-07-29T03:30:16;6.90;;;4.18;;
72404;SDS011;60395;52.020;113.548;2022-07-29T03:33:23;8.35;;;4.55;;
72404;SDS011;60395;52.020;113.548;2022-07-29T03:36:26;10.82;;;4.63;;
72404;SDS011;60395;52.020;113.548;2022-07-29T03:39:29;6.35;;;5.03;;
72404;SDS011;60395;52.020;113.548;2022-07-29T03:42:37;32.05;;;22.85;;
72404;SDS011;60395;52.020;113.548;2022-07-29T03:45:42;8.05;;;4.47;;
72404;SDS011;60395;52.020;113.548;2022-07-29T03:48:52;27.05;;;11.90;;
72404;SDS011;60395;52.020;113.548;2022-07-29T03:51:58;9.98;;;4.85;;
72404;SDS011;60395;52.020;113.548;2022-07-29T03:55:02;8.80;;;4.20;;
72404;SDS011;60395;52.020;113.548;2022-07-29T03:58:07;8.23;;;4.80;;
72404;SDS011;60395;52.020;113.548;2022-07-29T04:01:10;7.30;;;4.37;;
72404;SDS011;60395;52.020;113.548;2022-07-29T04:07:18;13.18;;;5.93;;
72404;SDS011;60395;52.020;113.548;2022-07-29T04:10:22;12.30;;;4.10;;
72404;SDS011;60395;52.020;113.548;2022-07-29T04:13:32;5.97;;;3.30;;
72404;SDS011;60395;52.020;113.548;2022-07-29T04:16:35;10.50;;;4.10;;
72404;SDS011;60395;52.020;113.548;2022-07-29T04:19:38;5.72;;;3.38;;
72404;SDS011;60395;52.020;113.548;2022-07-29T04:22:41;9.18;;;3.65;;
72404;SDS011;60395;52.020;113.548;2022-07-29T04:25:44;6.70;;;3.90;;
72404;SDS011;60395;52.020;113.548;2022-07-29T04:28:47;7.13;;;3.65;;
72404;SDS011;60395;52.020;113.548;2022-07-29T04:31:50;6.25;;;3.58;;
72404;SDS011;60395;52.020;113.548;2022-07-29T04:34:54;6.95;;;3.55;;
72404;SDS011;60395;52.020;113.548;2022-07-29T04:37:57;4.70;;;2.88;;
72404;SDS011;60395;52.020;113.548;2022-07-29T04:41:00;5.78;;;3.13;;
72404;SDS011;60395;52.020;113.548;2022-07-29T04:44:03;7.85;;;3.17;;
72404;SDS011;60395;52.020;113.548;2022-07-29T04:47:08;7.10;;;5.43;;
72404;SDS011;60395;52.020;113.548;2022-07-29T04:50:11;3.92;;;2.80;;
72404;SDS011;60395;52.020;113.548;2022-07-29T04:53:15;4.78;;;2.70;;
72404;SDS011;60395;52.020;113.548;2022-07-29T04:56:18;3.47;;;2.80;;
72404;SDS011;60395;52.020;113.548;2022-07-29T04:59:21;3.20;;;2.90;;
72404;SDS011;60395;52.020;113.548;2022-07-29T05:02:24;3.17;;;2.70;;
72404;SDS011;60395;52.020;113.548;2022-07-29T05:05:27;4.03;;;3.00;;
72404;SDS011;60395;52.020;113.548;2022-07-29T05:08:31;4.95;;;3.20;;
72404;SDS011;60395;52.020;113.548;2022-07-29T05:11:34;5.05;;;3.10;;
72404;SDS011;60395;52.020;113.548;2022-07-29T05:14:37;3.80;;;2.55;;
72404;SDS011;60395;52.020;113.548;2022-07-29T05:17:41;5.13;;;2.90;;
72404;SDS011;60395;52.020;113.548;2022-07-29T05:20:44;7.55;;;2.85;;
72404;SDS011;60395;52.020;113.548;2022-07-29T05:23:47;4.35;;;3.95;;
72404;SDS011;60395;52.020;113.548;2022-07-29T05:26:50;14.63;;;7.57;;
72404;SDS011;60395;52.020;113.548;2022-07-29T05:29:53;6.05;;;3.22;;
72404;SDS011;60395;52.020;113.548;2022-07-29T05:32:56;2.85;;;2.50;;
72404;SDS011;60395;52.020;113.548;2022-07-29T05:35:59;3.17;;;2.88;;
72404;SDS011;60395;52.020;113.548;2022-07-29T05:39:02;3.30;;;3.00;;
72404;SDS011;60395;52.020;113.548;2022-07-29T05:42:11;4.80;;;2.60;;
72404;SDS011;60395;52.020;113.548;2022-07-29T05:45:14;2.97;;;2.70;;
72404;SDS011;60395;52.020;113.548;2022-07-29T05:48:18;4.40;;;3.05;;
72404;SDS011;60395;52.020;113.548;2022-07-29T05:51:21;3.40;;;3.03;;
72404;SDS011;60395;52.020;113.548;2022-07-29T05:54:24;8.20;;;4.82;;
72404;SDS011;60395;52.020;113.548;2022-07-29T05:57:27;3.20;;;2.90;;
72404;SDS011;60395;52.020;113.548;2022-07-29T06:00:31;3.85;;;2.65;;
72404;SDS011;60395;52.020;113.548;2022-07-29T06:03:34;3.08;;;2.65;;
72404;SDS011;60395;52.020;113.548;2022-07-29T06:06:37;4.82;;;2.47;;
72404;SDS011;60395;52.020;113.548;2022-07-29T06:09:40;2.70;;;2.50;;
72404;SDS011;60395;52.020;113.548;2022-07-29T06:12:43;4.15;;;2.30;;
72404;SDS011;60395;52.020;113.548;2022-07-29T06:15:46;2.40;;;2.08;;
72404;SDS011;60395;52.020;113.548;2022-07-29T06:18:49;3.88;;;2.80;;
72404;SDS011;60395;52.020;113.548;2022-07-29T06:21:52;4.03;;;2.40;;
72404;SDS011;60395;52.020;113.548;2022-07-29T06:24:55;14.30;;;10.93;;
72404;SDS011;60395;52.020;113.548;2022-07-29T06:27:58;6.80;;;3.50;;
72404;SDS011;60395;52.020;113.548;2022-07-29T06:31:01;5.25;;;3.45;;
72404;SDS011;60395;52.020;113.548;2022-07-29T06:34:05;2.80;;;2.50;;
72404;SDS011;60395;52.020;113.548;2022-07-29T06:37:08;6.70;;;3.33;;
72404;SDS011;60395;52.020;113.548;2022-07-29T06:40:16;2.72;;;2.30;;
72404;SDS011;60395;52.020;113.548;2022-07-29T06:43:38;3.33;;;2.40;;
72404;SDS011;60395;52.020;113.548;2022-07-29T06:46:53;2.85;;;2.22;;
72404;SDS011;60395;52.020;113.548;2022-07-29T06:49:56;2.40;;;2.20;;
72404;SDS011;60395;52.020;113.548;2022-07-29T06:52:59;2.95;;;2.33;;
72404;SDS011;60395;52.020;113.548;2022-07-29T06:56:03;2.80;;;2.30;;
72404;SDS011;60395;52.020;113.548;2022-07-29T07:02:11;3.92;;;2.20;;
72404;SDS011;60395;52.020;113.548;2022-07-29T07:05:14;3.72;;;2.40;;
72404;SDS011;60395;52.020;113.548;2022-07-29T07:08:17;3.72;;;2.28;;
72404;SDS011;60395;52.020;113.548;2022-07-29T07:14:24;2.45;;;2.25;;
72404;SDS011;60395;52.020;113.548;2022-07-29T07:17:29;2.88;;;2.53;;
72404;SDS011;60395;52.020;113.548;2022-07-29T07:20:35;2.80;;;2.40;;
72404;SDS011;60395;52.020;113.548;2022-07-29T07:23:38;2.47;;;2.15;;
72404;SDS011;60395;52.020;113.548;2022-07-29T07:26:41;4.50;;;2.35;;
72404;SDS011;60395;52.020;113.548;2022-07-29T07:29:45;4.25;;;2.30;;
72404;SDS011;60395;52.020;113.548;2022-07-29T07:32:48;5.70;;;2.42;;
72404;SDS011;60395;52.020;113.548;2022-07-29T07:35:51;4.07;;;2.47;;
72404;SDS011;60395;52.020;113.548;2022-07-29T07:38:54;4.13;;;2.30;;
72404;SDS011;60395;52.020;113.548;2022-07-29T07:41:58;3.95;;;2.38;;
72404;SDS011;60395;52.020;113.548;2022-07-29T07:45:01;7.40;;;2.40;;
72404;SDS011;60395;52.020;113.548;2022-07-29T07:48:14;3.63;;;2.45;;
72404;SDS011;60395;52.020;113.548;2022-07-29T07:51:18;3.50;;;2.40;;
72404;SDS011;60395;52.020;113.548;2022-07-29T07:54:21;2.92;;;2.30;;
72404;SDS011;60395;52.020;113.548;2022-07-29T07:57:24;4.25;;;2.33;;
72404;SDS011;60395;52.020;113.548;2022-07-29T08:00:28;3.55;;;2.15;;
72404;SDS011;60395;52.020;113.548;2022-07-29T08:03:31;3.70;;;2.60;;
72404;SDS011;60395;52.020;113.548;2022-07-29T08:09:39;4.55;;;2.22;;
72404;SDS011;60395;52.020;113.548;2022-07-29T08:12:42;6.55;;;3.00;;
72404;SDS011;60395;52.020;113.548;2022-07-29T08:15:45;2.40;;;2.20;;
72404;SDS011;60395;52.020;113.548;2022-07-29T08:18:48;3.13;;;2.47;;
72404;SDS011;60395;52.020;113.548;2022-07-29T08:21:53;4.45;;;2.15;;
72404;SDS011;60395;52.020;113.548;2022-07-29T08:24:56;4.18;;;2.30;;
72404;SDS011;60395;52.020;113.548;2022-07-29T08:28:00;2.20;;;2.00;;
72404;SDS011;60395;52.020;113.548;2022-07-29T08:31:03;3.95;;;2.40;;
72404;SDS011;60395;52.020;113.548;2022-07-29T08:34:06;3.20;;;2.10;;
72404;SDS011;60395;52.020;113.548;2022-07-29T08:37:09;2.50;;;2.30;;
72404;SDS011;60395;52.020;113.548;2022-07-29T08:40:13;3.75;;;2.50;;
72404;SDS011;60395;52.020;113.548;2022-07-29T08:43:19;3.67;;;2.17;;
72404;SDS011;60395;52.020;113.548;2022-07-29T08:46:23;3.35;;;2.20;;
72404;SDS011;60395;52.020;113.548;2022-07-29T08:49:28;3.88;;;2.10;;
72404;SDS011;60395;52.020;113.548;2022-07-29T08:52:33;2.95;;;2.30;;
72404;SDS011;60395;52.020;113.548;2022-07-29T08:55:42;2.70;;;1.98;;
72404;SDS011;60395;52.020;113.548;2022-07-29T08:58:47;2.47;;;2.10;;
72404;SDS011;60395;52.020;113.548;2022-07-29T09:01:53;2.88;;;2.35;;
72404;SDS011;60395;52.020;113.548;2022-07-29T09:04:58;3.85;;;2.15;;
72404;SDS011;60395;52.020;113.548;2022-07-29T09:08:05;4.95;;;2.17;;
72404;SDS011;60395;52.020;113.548;2022-07-29T09:11:08;5.22;;;2.20;;
72404;SDS011;60395;52.020;113.548;2022-07-29T09:14:12;3.65;;;2.20;;
72404;SDS011;60395;52.020;113.548;2022-07-29T09:17:16;5.93;;;2.45;;
72404;SDS011;60395;52.020;113.548;2022-07-29T09:20:20;4.55;;;2.45;;
72404;SDS011;60395;52.020;113.548;2022-07-29T09:23:28;4.28;;;2.28;;
72404;SDS011;60395;52.020;113.548;2022-07-29T09:26:32;3.50;;;2.20;;
72404;SDS011;60395;52.020;113.548;2022-07-29T09:29:37;10.90;;;2.38;;
72404;SDS011;60395;52.020;113.548;2022-07-29T09:32:53;2.78;;;2.38;;
72404;SDS011;60395;52.020;113.548;2022-07-29T09:39:07;7.03;;;2.50;;
72404;SDS011;60395;52.020;113.548;2022-07-29T09:42:11;4.28;;;2.33;;
72404;SDS011;60395;52.020;113.548;2022-07-29T09:45:27;3.90;;;2.08;;
72404;SDS011;60395;52.020;113.548;2022-07-29T09:48:33;5.22;;;2.20;;
72404;SDS011;60395;52.020;113.548;2022-07-29T09:51:37;2.83;;;2.35;;
72404;SDS011;60395;52.020;113.548;2022-07-29T09:54:41;3.05;;;2.15;;
72404;SDS011;60395;52.020;113.548;2022-07-29T09:57:46;3.95;;;3.05;;
72404;SDS011;60395;52.020;113.548;2022-07-29T10:00:50;5.43;;;2.67;;
72404;SDS011;60395;52.020;113.548;2022-07-29T10:03:54;5.90;;;2.85;;
72404;SDS011;60395;52.020;113.548;2022-07-29T10:06:58;2.53;;;2.25;;
72404;SDS011;60395;52.020;113.548;2022-07-29T10:10:06;2.90;;;1.98;;
72404;SDS011;60395;52.020;113.548;2022-07-29T10:13:10;2.40;;;2.20;;
72404;SDS011;60395;52.020;113.548;2022-07-29T10:16:17;3.40;;;2.30;;
72404;SDS011;60395;52.020;113.548;2022-07-29T10:19:20;4.13;;;2.35;;
72404;SDS011;60395;52.020;113.548;2022-07-29T10:22:24;6.30;;;2.72;;
72404;SDS011;60395;52.020;113.548;2022-07-29T10:25:47;7.00;;;2.47;;
72404;SDS011;60395;52.020;113.548;2022-07-29T10:28:50;5.10;;;1.90;;
72404;SDS011;60395;52.020;113.548;2022-07-29T10:32:16;5.90;;;2.22;;
72404;SDS011;60395;52.020;113.548;2022-07-29T10:45:30;2.85;;;2.25;;
72404;SDS011;60395;52.020;113.548;2022-07-29T10:48:33;6.07;;;2.55;;
72404;SDS011;60395;52.020;113.548;2022-07-29T10:54:55;4.50;;;2.10;;
72404;SDS011;60395;52.020;113.548;2022-07-29T11:01:29;6.50;;;2.80;;
72404;SDS011;60395;52.020;113.548;2022-07-29T11:21:01;7.07;;;4.00;;
72404;SDS011;60395;52.020;113.548;2022-07-29T11:24:20;11.68;;;5.32;;
72404;SDS011;60395;52.020;113.548;2022-07-29T11:27:49;6.10;;;3.67;;
72404;SDS011;60395;52.020;113.548;2022-07-29T11:30:55;5.63;;;3.10;;
72404;SDS011;60395;52.020;113.548;2022-07-29T11:34:45;7.30;;;5.03;;
72404;SDS011;60395;52.020;113.548;2022-07-29T11:37:46;7.65;;;4.30;;
72404;SDS011;60395;52.020;113.548;2022-07-29T11:41:21;11.35;;;4.13;;
72404;SDS011;60395;52.020;113.548;2022-07-29T11:48:29;5.65;;;4.45;;
72404;SDS011;60395;52.020;113.548;2022-07-29T11:51:36;6.85;;;3.88;;
72404;SDS011;60395;52.020;113.548;2022-07-29T11:54:51;5.88;;;3.90;;
72404;SDS011;60395;52.020;113.548;2022-07-29T11:57:59;5.40;;;4.20;;
72404;SDS011;60395;52.020;113.548;2022-07-29T12:01:05;11.57;;;8.80;;
72404;SDS011;60395;52.020;113.548;2022-07-29T12:04:09;8.75;;;6.60;;
72404;SDS011;60395;52.020;113.548;2022-07-29T12:07:14;4.82;;;3.05;;
72404;SDS011;60395;52.020;113.548;2022-07-29T12:10:17;6.32;;;3.28;;
72404;SDS011;60395;52.020;113.548;2022-07-29T12:13:31;5.00;;;3.60;;
72404;SDS011;60395;52.020;113.548;2022-07-29T12:16:41;3.45;;;2.88;;
72404;SDS011;60395;52.020;113.548;2022-07-29T12:19:44;4.43;;;3.20;;
72404;SDS011;60395;52.020;113.548;2022-07-29T12:22:51;4.15;;;3.20;;
72404;SDS011;60395;52.020;113.548;2022-07-29T12:25:57;7.35;;;4.65;;
72404;SDS011;60395;52.020;113.548;2022-07-29T12:29:01;4.75;;;3.20;;
72404;SDS011;60395;52.020;113.548;2022-07-29T12:32:12;3.78;;;3.00;;
72404;SDS011;60395;52.020;113.548;2022-07-29T12:35:20;3.78;;;2.42;;
72404;SDS011;60395;52.020;113.548;2022-07-29T12:38:24;4.45;;;3.03;;
72404;SDS011;60395;52.020;113.548;2022-07-29T12:41:28;6.03;;;3.42;;
72404;SDS011;60395;52.020;113.548;2022-07-29T12:44:44;4.00;;;3.00;;
72404;SDS011;60395;52.020;113.548;2022-07-29T12:47:51;6.40;;;3.65;;
72404;SDS011;60395;52.020;113.548;2022-07-29T12:50:58;2.85;;;2.35;;
72404;SDS011;60395;52.020;113.548;2022-07-29T12:54:04;1.92;;;1.73;;
72404;SDS011;60395;52.020;113.548;2022-07-29T12:57:12;2.85;;;1.80;;
72404;SDS011;60395;52.020;113.548;2022-07-29T13:00:21;2.10;;;1.80;;
72404;SDS011;60395;52.020;113.548;2022-07-29T13:03:26;3.47;;;2.33;;
72404;SDS011;60395;52.020;113.548;2022-07-29T13:06:43;3.85;;;1.90;;
72404;SDS011;60395;52.020;113.548;2022-07-29T13:09:51;2.53;;;1.77;;
72404;SDS011;60395;52.020;113.548;2022-07-29T13:13:08;4.85;;;2.17;;
72404;SDS011;60395;52.020;113.548;2022-07-29T13:16:13;3.10;;;2.47;;
72404;SDS011;60395;52.020;113.548;2022-07-29T13:19:16;3.03;;;2.40;;
72404;SDS011;60395;52.020;113.548;2022-07-29T13:22:23;2.27;;;1.73;;
72404;SDS011;60395;52.020;113.548;2022-07-29T13:25:27;3.10;;;1.83;;
72404;SDS011;60395;52.020;113.548;2022-07-29T13:28:32;3.63;;;2.75;;
72404;SDS011;60395;52.020;113.548;2022-07-29T13:31:36;4.13;;;2.60;;
72404;SDS011;60395;52.020;113.548;2022-07-29T13:34:39;2.00;;;1.80;;
72404;SDS011;60395;52.020;113.548;2022-07-29T13:37:43;2.55;;;1.95;;
72404;SDS011;60395;52.020;113.548;2022-07-29T13:40:46;2.30;;;2.10;;
72404;SDS011;60395;52.020;113.548;2022-07-29T13:43:49;5.90;;;2.53;;
72404;SDS011;60395;52.020;113.548;2022-07-29T13:46:52;6.20;;;3.08;;
72404;SDS011;60395;52.020;113.548;2022-07-29T13:49:55;2.85;;;2.10;;
72404;SDS011;60395;52.020;113.548;2022-07-29T13:52:59;5.18;;;3.90;;
72404;SDS011;60395;52.020;113.548;2022-07-29T13:56:02;3.63;;;2.00;;
72404;SDS011;60395;52.020;113.548;2022-07-29T13:59:08;2.17;;;1.77;;
72404;SDS011;60395;52.020;113.548;2022-07-29T14:02:12;2.13;;;1.92;;
72404;SDS011;60395;52.020;113.548;2022-07-29T14:05:16;1.87;;;1.67;;
72404;SDS011;60395;52.020;113.548;2022-07-29T14:08:19;3.70;;;1.70;;
72404;SDS011;60395;52.020;113.548;2022-07-29T14:11:24;2.67;;;1.92;;
72404;SDS011;60395;52.020;113.548;2022-07-29T14:14:28;2.30;;;1.80;;
72404;SDS011;60395;52.020;113.548;2022-07-29T14:17:31;2.10;;;1.88;;
72404;SDS011;60395;52.020;113.548;2022-07-29T14:20:35;1.95;;;1.75;;
72404;SDS011;60395;52.020;113.548;2022-07-29T14:23:38;2.00;;;1.80;;
72404;SDS011;60395;52.020;113.548;2022-07-29T14:26:44;5.00;;;2.00;;
72404;SDS011;60395;52.020;113.548;2022-07-29T14:29:48;3.45;;;1.70;;
72404;SDS011;60395;52.020;113.548;2022-07-29T14:32:51;5.82;;;1.85;;
72404;SDS011;60395;52.020;113.548;2022-07-29T14:35:54;3.88;;;1.98;;
72404;SDS011;60395;52.020;113.548;2022-07-29T14:39:01;1.92;;;1.73;;
72404;SDS011;60395;52.020;113.548;2022-07-29T14:42:05;2.20;;;1.85;;
72404;SDS011;60395;52.020;113.548;2022-07-29T14:45:08;3.05;;;1.80;;
72404;SDS011;60395;52.020;113.548;2022-07-29T14:48:12;2.13;;;1.90;;
72404;SDS011;60395;52.020;113.548;2022-07-29T14:51:15;2.35;;;2.03;;
72404;SDS011;60395;52.020;113.548;2022-07-29T14:54:18;3.45;;;2.10;;
72404;SDS011;60395;52.020;113.548;2022-07-29T14:57:21;11.13;;;2.17;;
72404;SDS011;60395;52.020;113.548;2022-07-29T15:00:25;3.38;;;2.03;;
72404;SDS011;60395;52.020;113.548;2022-07-29T15:03:29;2.75;;;1.90;;
72404;SDS011;60395;52.020;113.548;2022-07-29T15:06:34;6.85;;;2.10;;
72404;SDS011;60395;52.020;113.548;2022-07-29T15:09:38;14.13;;;8.63;;
72404;SDS011;60395;52.020;113.548;2022-07-29T15:12:50;8.02;;;3.60;;
72404;SDS011;60395;52.020;113.548;2022-07-29T15:15:53;5.95;;;2.03;;
72404;SDS011;60395;52.020;113.548;2022-07-29T15:19:01;2.53;;;2.13;;
72404;SDS011;60395;52.020;113.548;2022-07-29T15:22:04;3.25;;;2.10;;
72404;SDS011;60395;52.020;113.548;2022-07-29T15:25:07;4.20;;;1.95;;
72404;SDS011;60395;52.020;113.548;2022-07-29T15:28:11;2.10;;;1.90;;
72404;SDS011;60395;52.020;113.548;2022-07-29T15:31:14;3.78;;;2.10;;
72404;SDS011;60395;52.020;113.548;2022-07-29T15:34:17;4.43;;;2.50;;
72404;SDS011;60395;52.020;113.548;2022-07-29T15:37:22;6.32;;;3.40;;
72404;SDS011;60395;52.020;113.548;2022-07-29T15:40:25;4.15;;;2.30;;
72404;SDS011;60395;52.020;113.548;2022-07-29T15:43:28;4.38;;;2.30;;
72404;SDS011;60395;52.020;113.548;2022-07-29T15:46:31;5.50;;;2.08;;
72404;SDS011;60395;52.020;113.548;2022-07-29T15:49:53;2.60;;;2.17;;
72404;SDS011;60395;52.020;113.548;2022-07-29T15:52:56;3.40;;;2.38;;
72404;SDS011;60395;52.020;113.548;2022-07-29T15:55:59;2.40;;;2.20;;
72404;SDS011;60395;52.020;113.548;2022-07-29T15:59:02;3.20;;;2.00;;
72404;SDS011;60395;52.020;113.548;2022-07-29T16:02:05;3.67;;;2.00;;
72404;SDS011;60395;52.020;113.548;2022-07-29T16:05:09;2.35;;;1.98;;
72404;SDS011;60395;52.020;113.548;2022-07-29T16:08:12;2.15;;;1.95;;
72404;SDS011;60395;52.020;113.548;2022-07-29T16:11:15;2.13;;;1.92;;
72404;SDS011;60395;52.020;113.548;2022-07-29T16:14:18;2.50;;;2.00;;
72404;SDS011;60395;52.020;113.548;2022-07-29T16:17:22;2.10;;;1.83;;
72404;SDS011;60395;52.020;113.548;2022-07-29T16:20:25;2.67;;;2.00;;
72404;SDS011;60395;52.020;113.548;2022-07-29T16:23:29;2.90;;;2.10;;
72404;SDS011;60395;52.020;113.548;2022-07-29T16:26:32;2.25;;;2.05;;
72404;SDS011;60395;52.020;113.548;2022-07-29T16:29:36;2.25;;;2.05;;
72404;SDS011;60395;52.020;113.548;2022-07-29T16:32:39;2.20;;;2.00;;
72404;SDS011;60395;52.020;113.548;2022-07-29T16:35:42;5.47;;;2.20;;
72404;SDS011;60395;52.020;113.548;2022-07-29T16:38:45;4.47;;;2.08;;
72404;SDS011;60395;52.020;113.548;2022-07-29T16:41:49;3.20;;;2.10;;
72404;SDS011;60395;52.020;113.548;2022-07-29T16:44:52;3.20;;;2.00;;
72404;SDS011;60395;52.020;113.548;2022-07-29T16:47:55;3.90;;;2.30;;
72404;SDS011;60395;52.020;113.548;2022-07-29T16:51:02;3.13;;;2.30;;
72404;SDS011;60395;52.020;113.548;2022-07-29T16:54:05;4.22;;;2.70;;
72404;SDS011;60395;52.020;113.548;2022-07-29T17:00:13;3.05;;;2.30;;
72404;SDS011;60395;52.020;113.548;2022-07-29T17:03:17;3.83;;;2.40;;
72404;SDS011;60395;52.020;113.548;2022-07-29T17:06:20;6.25;;;5.30;;
72404;SDS011;60395;52.020;113.548;2022-07-29T17:09:23;3.80;;;2.78;;
72404;SDS011;60395;52.020;113.548;2022-07-29T17:12:27;4.80;;;2.50;;
72404;SDS011;60395;52.020;113.548;2022-07-29T17:15:30;3.50;;;2.60;;
72404;SDS011;60395;52.020;113.548;2022-07-29T17:18:37;5.20;;;2.58;;
72404;SDS011;60395;52.020;113.548;2022-07-29T17:21:40;6.07;;;2.55;;
72404;SDS011;60395;52.020;113.548;2022-07-29T17:24:49;2.47;;;2.20;;
72404;SDS011;60395;52.020;113.548;2022-07-29T17:27:52;3.95;;;2.42;;
72404;SDS011;60395;52.020;113.548;2022-07-29T17:31:01;13.65;;;10.02;;
72404;SDS011;60395;52.020;113.548;2022-07-29T17:34:04;2.92;;;2.42;;
72404;SDS011;60395;52.020;113.548;2022-07-29T17:37:10;3.60;;;2.50;;
72404;SDS011;60395;52.020;113.548;2022-07-29T17:40:14;5.70;;;3.00;;
72404;SDS011;60395;52.020;113.548;2022-07-29T17:43:17;5.97;;;2.90;;
72404;SDS011;60395;52.020;113.548;2022-07-29T17:46:20;5.97;;;3.30;;
72404;SDS011;60395;52.020;113.548;2022-07-29T17:49:25;7.90;;;4.55;;
72404;SDS011;60395;52.020;113.548;2022-07-29T17:52:29;4.40;;;3.65;;
72404;SDS011;60395;52.020;113.548;2022-07-29T17:55:32;4.78;;;3.58;;
72404;SDS011;60395;52.020;113.548;2022-07-29T17:58:36;10.95;;;3.90;;
72404;SDS011;60395;52.020;113.548;2022-07-29T18:01:39;5.43;;;3.60;;
72404;SDS011;60395;52.020;113.548;2022-07-29T18:04:42;6.75;;;5.15;;
72404;SDS011;60395;52.020;113.548;2022-07-29T18:07:51;5.60;;;3.13;;
72404;SDS011;60395;52.020;113.548;2022-07-29T18:10:54;6.30;;;3.33;;
72404;SDS011;60395;52.020;113.548;2022-07-29T18:13:57;6.50;;;2.92;;
72404;SDS011;60395;52.020;113.548;2022-07-29T18:17:03;4.90;;;2.47;;
72404;SDS011;60395;52.020;113.548;2022-07-29T18:20:06;3.38;;;2.50;;
72404;SDS011;60395;52.020;113.548;2022-07-29T18:23:10;5.85;;;2.83;;
72404;SDS011;60395;52.020;113.548;2022-07-29T18:26:13;4.90;;;2.80;;
72404;SDS011;60395;52.020;113.548;2022-07-29T18:29:16;5.40;;;2.78;;
72404;SDS011;60395;52.020;113.548;2022-07-29T18:32:20;6.72;;;2.95;;
72404;SDS011;60395;52.020;113.548;2022-07-29T18:35:30;4.15;;;2.70;;
72404;SDS011;60395;52.020;113.548;2022-07-29T18:38:33;4.03;;;2.50;;
72404;SDS011;60395;52.020;113.548;2022-07-29T18:41:36;8.55;;;2.40;;
72404;SDS011;60395;52.020;113.548;2022-07-29T18:44:51;2.80;;;2.50;;
72404;SDS011;60395;52.020;113.548;2022-07-29T18:47:55;4.07;;;2.55;;
72404;SDS011;60395;52.020;113.548;2022-07-29T18:50:58;2.97;;;2.67;;
72404;SDS011;60395;52.020;113.548;2022-07-29T18:54:01;4.65;;;2.45;;
72404;SDS011;60395;52.020;113.548;2022-07-29T18:57:04;3.78;;;2.90;;
72404;SDS011;60395;52.020;113.548;2022-07-29T19:00:27;4.38;;;2.58;;
72404;SDS011;60395;52.020;113.548;2022-07-29T19:03:33;5.53;;;2.50;;
72404;SDS011;60395;52.020;113.548;2022-07-29T19:06:36;4.05;;;2.53;;
72404;SDS011;60395;52.020;113.548;2022-07-29T19:09:40;3.65;;;2.70;;